Terminal Aerodrome Forecast
Issued by NWS

Home | Current Version | Previous Version | Text Only | Print | Product List | Glossary On
Versions: 1 2 3 4 5 6 7 8 9 10 11 12 13 14 15 16 17
000
FTUS41 KGYX 231127
TAFRKD
TAF
KRKD 231127Z 2312/2412 VRB03KT 1/2SM FG OVC001
      TEMPO 2312/2314 2SM BR BKN002
     FM231400 20006KT P6SM BKN025 BKN250
      AMD LTD TO CLD VIS AND WIND=

USA.gov is the U.S. government's official web portal to all federal, state and local government web resources and services.